sensor_id;sensor_type;location;lat;lon;timestamp;pressure;altitude;pressure_sealevel;temperature;humidity
71915;BME280;60387;49.994;14.660;2023-04-04T00:02:32;98632.97;;;4.92;45.28
71915;BME280;60387;49.994;14.660;2023-04-04T00:05:06;98636.69;;;4.91;45.41
71915;BME280;60387;49.994;14.660;2023-04-04T00:07:39;98631.34;;;4.91;45.30
71915;BME280;60387;49.994;14.660;2023-04-04T00:10:13;98624.91;;;4.92;45.51
71915;BME280;60387;49.994;14.660;2023-04-04T00:12:46;98626.53;;;4.93;45.48
71915;BME280;60387;49.994;14.660;2023-04-04T00:15:19;98610.66;;;4.91;45.15
71915;BME280;60387;49.994;14.660;2023-04-04T00:17:53;98609.84;;;4.91;44.80
71915;BME280;60387;49.994;14.660;2023-04-04T00:20:26;98608.53;;;4.93;45.15
71915;BME280;60387;49.994;14.660;2023-04-04T00:22:59;98607.25;;;4.96;45.38
71915;BME280;60387;49.994;14.660;2023-04-04T00:25:33;98608.88;;;4.97;44.93
71915;BME280;60387;49.994;14.660;2023-04-04T00:28:06;98602.38;;;4.93;45.13
71915;BME280;60387;49.994;14.660;2023-04-04T00:30:39;98598.13;;;4.97;45.05
71915;BME280;60387;49.994;14.660;2023-04-04T00:33:15;98600.81;;;4.97;45.30
71915;BME280;60387;49.994;14.660;2023-04-04T00:35:49;98598.38;;;4.95;45.29
71915;BME280;60387;49.994;14.660;2023-04-04T00:38:22;98594.56;;;4.91;45.44
71915;BME280;60387;49.994;14.660;2023-04-04T00:40:56;98590.81;;;4.92;45.03
71915;BME280;60387;49.994;14.660;2023-04-04T00:43:29;98590.00;;;4.92;45.59
71915;BME280;60387;49.994;14.660;2023-04-04T00:46:03;98595.94;;;4.94;45.63
71915;BME280;60387;49.994;14.660;2023-04-04T00:48:36;98592.94;;;4.90;45.74
71915;BME280;60387;49.994;14.660;2023-04-04T00:51:09;98591.53;;;4.88;45.55
71915;BME280;60387;49.994;14.660;2023-04-04T00:53:46;98583.97;;;4.85;45.34
71915;BME280;60387;49.994;14.660;2023-04-04T00:56:20;98583.88;;;4.80;45.11
71915;BME280;60387;49.994;14.660;2023-04-04T00:58:54;98583.56;;;4.76;45.31
71915;BME280;60387;49.994;14.660;2023-04-04T01:01:27;98582.19;;;4.74;44.99
71915;BME280;60387;49.994;14.660;2023-04-04T01:04:01;98577.28;;;4.71;45.10
71915;BME280;60387;49.994;14.660;2023-04-04T01:06:34;98579.41;;;4.69;45.23
71915;BME280;60387;49.994;14.660;2023-04-04T01:09:08;98585.00;;;4.67;45.00
71915;BME280;60387;49.994;14.660;2023-04-04T01:11:42;98581.53;;;4.67;45.16
71915;BME280;60387;49.994;14.660;2023-04-04T01:14:15;98574.53;;;4.66;45.18
71915;BME280;60387;49.994;14.660;2023-04-04T01:16:50;98567.06;;;4.68;45.05
71915;BME280;60387;49.994;14.660;2023-04-04T01:19:43;98574.28;;;4.67;45.21
71915;BME280;60387;49.994;14.660;2023-04-04T01:22:20;98569.19;;;4.66;45.08
71915;BME280;60387;49.994;14.660;2023-04-04T01:24:55;98567.06;;;4.68;45.16
71915;BME280;60387;49.994;14.660;2023-04-04T01:27:30;98564.38;;;4.68;45.04
71915;BME280;60387;49.994;14.660;2023-04-04T01:30:04;98569.25;;;4.71;44.94
71915;BME280;60387;49.994;14.660;2023-04-04T01:32:53;98562.25;;;4.70;44.93
71915;BME280;60387;49.994;14.660;2023-04-04T01:38:41;98565.50;;;4.72;45.21
71915;BME280;60387;49.994;14.660;2023-04-04T01:41:19;98555.50;;;4.67;45.38
71915;BME280;60387;49.994;14.660;2023-04-04T01:43:52;98555.03;;;4.70;45.59
71915;BME280;60387;49.994;14.660;2023-04-04T01:46:26;98562.50;;;4.68;45.29
71915;BME280;60387;49.994;14.660;2023-04-04T01:48:59;98559.00;;;4.68;45.72
71915;BME280;60387;49.994;14.660;2023-04-04T01:51:33;98550.63;;;4.64;45.95
71915;BME280;60387;49.994;14.660;2023-04-04T01:54:06;98552.47;;;4.64;46.15
71915;BME280;60387;49.994;14.660;2023-04-04T01:56:39;98555.09;;;4.59;46.56
71915;BME280;60387;49.994;14.660;2023-04-04T01:59:13;98556.41;;;4.56;46.25
71915;BME280;60387;49.994;14.660;2023-04-04T02:01:46;98555.56;;;4.56;46.26
71915;BME280;60387;49.994;14.660;2023-04-04T02:04:19;98551.53;;;4.53;46.54
71915;BME280;60387;49.994;14.660;2023-04-04T02:06:53;98553.88;;;4.50;46.94
71915;BME280;60387;49.994;14.660;2023-04-04T02:09:26;98550.63;;;4.48;46.41
71915;BME280;60387;49.994;14.660;2023-04-04T02:11:59;98547.69;;;4.49;46.60
71915;BME280;60387;49.994;14.660;2023-04-04T02:14:33;98546.28;;;4.47;46.62
71915;BME280;60387;49.994;14.660;2023-04-04T02:17:06;98547.34;;;4.46;46.90
71915;BME280;60387;49.994;14.660;2023-04-04T02:19:39;98546.22;;;4.42;46.68
71915;BME280;60387;49.994;14.660;2023-04-04T02:22:13;98541.09;;;4.40;46.67
71915;BME280;60387;49.994;14.660;2023-04-04T02:24:46;98545.41;;;4.41;47.01
71915;BME280;60387;49.994;14.660;2023-04-04T02:27:19;98538.66;;;4.39;46.81
71915;BME280;60387;49.994;14.660;2023-04-04T02:29:53;98545.66;;;4.40;47.21
71915;BME280;60387;49.994;14.660;2023-04-04T02:32:26;98542.63;;;4.36;46.95
71915;BME280;60387;49.994;14.660;2023-04-04T02:34:59;98532.03;;;4.30;47.13
71915;BME280;60387;49.994;14.660;2023-04-04T02:37:32;98546.44;;;4.24;47.53
71915;BME280;60387;49.994;14.660;2023-04-04T02:40:06;98548.13;;;4.30;47.35
71915;BME280;60387;49.994;14.660;2023-04-04T02:42:43;98544.88;;;4.28;46.75
71915;BME280;60387;49.994;14.660;2023-04-04T02:45:17;98539.53;;;4.28;47.23
71915;BME280;60387;49.994;14.660;2023-04-04T02:47:50;98544.31;;;4.26;47.82
71915;BME280;60387;49.994;14.660;2023-04-04T02:50:24;98537.72;;;4.17;47.97
71915;BME280;60387;49.994;14.660;2023-04-04T02:53:01;98544.38;;;4.14;48.03
71915;BME280;60387;49.994;14.660;2023-04-04T02:55:34;98540.06;;;4.13;47.90
71915;BME280;60387;49.994;14.660;2023-04-04T02:58:08;98540.78;;;4.09;47.88
71915;BME280;60387;49.994;14.660;2023-04-04T03:00:41;98545.81;;;4.05;47.57
71915;BME280;60387;49.994;14.660;2023-04-04T03:03:14;98538.00;;;4.04;47.33
71915;BME280;60387;49.994;14.660;2023-04-04T03:05:48;98533.94;;;4.01;47.07
71915;BME280;60387;49.994;14.660;2023-04-04T03:08:22;98545.97;;;3.99;47.77
71915;BME280;60387;49.994;14.660;2023-04-04T03:10:55;98544.34;;;3.98;47.63
71915;BME280;60387;49.994;14.660;2023-04-04T03:13:28;98542.94;;;3.95;48.39
71915;BME280;60387;49.994;14.660;2023-04-04T03:16:03;98539.69;;;3.93;47.66
71915;BME280;60387;49.994;14.660;2023-04-04T03:18:39;98542.94;;;3.95;47.38
71915;BME280;60387;49.994;14.660;2023-04-04T03:21:13;98539.22;;;3.96;47.56
71915;BME280;60387;49.994;14.660;2023-04-04T03:23:46;98527.56;;;3.91;47.69
71915;BME280;60387;49.994;14.660;2023-04-04T03:26:19;98550.41;;;3.93;47.30
71915;BME280;60387;49.994;14.660;2023-04-04T03:28:52;98536.41;;;3.91;47.24
71915;BME280;60387;49.994;14.660;2023-04-04T03:31:26;98529.19;;;3.92;47.27
71915;BME280;60387;49.994;14.660;2023-04-04T03:33:59;98537.97;;;3.87;47.35
71915;BME280;60387;49.994;14.660;2023-04-04T03:36:32;98539.00;;;3.86;47.46
71915;BME280;60387;49.994;14.660;2023-04-04T03:39:05;98542.19;;;3.83;47.11
71915;BME280;60387;49.994;14.660;2023-04-04T03:41:39;98541.59;;;3.81;47.30
71915;BME280;60387;49.994;14.660;2023-04-04T03:44:12;98540.34;;;3.72;47.75
71915;BME280;60387;49.994;14.660;2023-04-04T03:46:45;98550.81;;;3.74;48.05
71915;BME280;60387;49.994;14.660;2023-04-04T03:49:19;98534.56;;;3.64;48.20
71915;BME280;60387;49.994;14.660;2023-04-04T03:51:52;98542.81;;;3.62;48.34
71915;BME280;60387;49.994;14.660;2023-04-04T03:54:27;98539.00;;;3.58;48.70
71915;BME280;60387;49.994;14.660;2023-04-04T03:57:00;98537.69;;;3.61;48.26
71915;BME280;60387;49.994;14.660;2023-04-04T03:59:33;98534.78;;;3.62;48.06
71915;BME280;60387;49.994;14.660;2023-04-04T04:02:07;98541.31;;;3.66;48.32
71915;BME280;60387;49.994;14.660;2023-04-04T04:04:40;98539.66;;;3.65;48.07
71915;BME280;60387;49.994;14.660;2023-04-04T04:07:13;98537.78;;;3.66;47.60
71915;BME280;60387;49.994;14.660;2023-04-04T04:09:46;98548.38;;;3.72;48.12
71915;BME280;60387;49.994;14.660;2023-04-04T04:12:20;98541.63;;;3.70;48.41
71915;BME280;60387;49.994;14.660;2023-04-04T04:14:53;98549.44;;;3.71;47.58
71915;BME280;60387;49.994;14.660;2023-04-04T04:17:26;98543.72;;;3.68;48.19
71915;BME280;60387;49.994;14.660;2023-04-04T04:20:00;98549.66;;;3.70;47.59
71915;BME280;60387;49.994;14.660;2023-04-04T04:22:33;98551.38;;;3.76;47.88
71915;BME280;60387;49.994;14.660;2023-04-04T04:25:07;98535.81;;;3.73;47.75
71915;BME280;60387;49.994;14.660;2023-04-04T04:27:40;98534.19;;;3.72;48.33
71915;BME280;60387;49.994;14.660;2023-04-04T04:30:14;98545.69;;;3.72;48.44
71915;BME280;60387;49.994;14.660;2023-04-04T04:32:48;98538.47;;;3.73;48.31
71915;BME280;60387;49.994;14.660;2023-04-04T04:35:21;98539.88;;;3.75;48.44
71915;BME280;60387;49.994;14.660;2023-04-04T04:37:55;98556.53;;;3.77;48.35
71915;BME280;60387;49.994;14.660;2023-04-04T04:40:28;98562.59;;;3.73;49.16
71915;BME280;60387;49.994;14.660;2023-04-04T04:43:01;98551.03;;;3.72;48.42
71915;BME280;60387;49.994;14.660;2023-04-04T04:45:35;98557.22;;;3.73;47.88
71915;BME280;60387;49.994;14.660;2023-04-04T04:48:08;98559.19;;;3.77;48.03
71915;BME280;60387;49.994;14.660;2023-04-04T04:50:47;98563.38;;;3.73;48.51
71915;BME280;60387;49.994;14.660;2023-04-04T04:53:21;98562.59;;;3.73;48.16
71915;BME280;60387;49.994;14.660;2023-04-04T04:55:54;98556.97;;;3.74;48.12
71915;BME280;60387;49.994;14.660;2023-04-04T04:58:27;98556.97;;;3.74;48.37
71915;BME280;60387;49.994;14.660;2023-04-04T05:01:00;98547.31;;;3.73;48.14
71915;BME280;60387;49.994;14.660;2023-04-04T05:03:34;98551.88;;;3.73;48.36
71915;BME280;60387;49.994;14.660;2023-04-04T05:06:07;98555.59;;;3.72;48.83
71915;BME280;60387;49.994;14.660;2023-04-04T05:08:40;98552.09;;;3.71;48.64
71915;BME280;60387;49.994;14.660;2023-04-04T05:11:13;98546.53;;;3.73;48.90
71915;BME280;60387;49.994;14.660;2023-04-04T05:13:47;98549.19;;;3.73;48.14
71915;BME280;60387;49.994;14.660;2023-04-04T05:16:20;98550.00;;;3.73;48.55
71915;BME280;60387;49.994;14.660;2023-04-04T05:18:53;98554.78;;;3.71;48.26
71915;BME280;60387;49.994;14.660;2023-04-04T05:21:27;98553.16;;;3.70;48.90
71915;BME280;60387;49.994;14.660;2023-04-04T05:24:00;98564.69;;;3.71;48.73
71915;BME280;60387;49.994;14.660;2023-04-04T05:26:33;98565.28;;;3.73;48.14
71915;BME280;60387;49.994;14.660;2023-04-04T05:29:06;98569.09;;;3.77;48.38
71915;BME280;60387;49.994;14.660;2023-04-04T05:31:40;98563.72;;;3.77;48.11
71915;BME280;60387;49.994;14.660;2023-04-04T05:34:13;98566.88;;;3.85;48.08
71915;BME280;60387;49.994;14.660;2023-04-04T05:36:46;98556.72;;;3.87;48.23
71915;BME280;60387;49.994;14.660;2023-04-04T05:39:20;98564.59;;;3.94;48.26
71915;BME280;60387;49.994;14.660;2023-04-04T05:41:53;98568.34;;;3.93;47.78
71915;BME280;60387;49.994;14.660;2023-04-04T05:44:26;98557.97;;;3.96;48.43
71915;BME280;60387;49.994;14.660;2023-04-04T05:46:59;98574.28;;;3.95;47.97
71915;BME280;60387;49.994;14.660;2023-04-04T05:49:33;98573.94;;;3.91;47.90
71915;BME280;60387;49.994;14.660;2023-04-04T05:52:06;98577.28;;;3.98;47.80
71915;BME280;60387;49.994;14.660;2023-04-04T05:54:39;98571.94;;;3.98;47.79
71915;BME280;60387;49.994;14.660;2023-04-04T05:57:13;98578.19;;;4.04;47.73
71915;BME280;60387;49.994;14.660;2023-04-04T05:59:46;98567.75;;;4.02;47.17
71915;BME280;60387;49.994;14.660;2023-04-04T06:02:19;98563.28;;;4.08;47.53
71915;BME280;60387;49.994;14.660;2023-04-04T06:04:52;98577.94;;;4.17;47.07
71915;BME280;60387;49.994;14.660;2023-04-04T06:07:26;98578.50;;;4.19;46.98
71915;BME280;60387;49.994;14.660;2023-04-04T06:09:59;98577.81;;;4.12;46.80
71915;BME280;60387;49.994;14.660;2023-04-04T06:12:32;98568.44;;;4.26;47.09
71915;BME280;60387;49.994;14.660;2023-04-04T06:15:06;98571.09;;;4.09;46.55
71915;BME280;60387;49.994;14.660;2023-04-04T06:17:40;98569.06;;;4.16;46.30
71915;BME280;60387;49.994;14.660;2023-04-04T06:20:13;98573.00;;;4.25;46.30
71915;BME280;60387;49.994;14.660;2023-04-04T06:22:46;98573.19;;;4.35;46.32
71915;BME280;60387;49.994;14.660;2023-04-04T06:25:20;98568.00;;;4.45;46.37
71915;BME280;60387;49.994;14.660;2023-04-04T06:27:54;98568.41;;;4.54;46.08
71915;BME280;60387;49.994;14.660;2023-04-04T06:30:27;98575.50;;;4.60;45.69
71915;BME280;60387;49.994;14.660;2023-04-04T06:33:00;98579.56;;;4.62;45.91
71915;BME280;60387;49.994;14.660;2023-04-04T06:35:34;98578.09;;;4.55;45.79
71915;BME280;60387;49.994;14.660;2023-04-04T06:38:07;98573.88;;;4.59;45.12
71915;BME280;60387;49.994;14.660;2023-04-04T06:40:40;98566.88;;;4.58;45.68
71915;BME280;60387;49.994;14.660;2023-04-04T06:43:13;98579.25;;;4.59;45.57
71915;BME280;60387;49.994;14.660;2023-04-04T06:45:48;98576.16;;;4.67;45.25
71915;BME280;60387;49.994;14.660;2023-04-04T06:48:21;98581.03;;;4.70;45.39
71915;BME280;60387;49.994;14.660;2023-04-04T06:50:54;98581.59;;;4.72;45.38
71915;BME280;60387;49.994;14.660;2023-04-04T06:53:28;98575.28;;;4.78;45.69
71915;BME280;60387;49.994;14.660;2023-04-04T06:56:02;98579.28;;;4.92;45.71
71915;BME280;60387;49.994;14.660;2023-04-04T06:58:36;98573.28;;;5.23;45.79
71915;BME280;60387;49.994;14.660;2023-04-04T07:01:09;98560.63;;;5.56;45.21
71915;BME280;60387;49.994;14.660;2023-04-04T07:03:42;98563.66;;;6.03;45.26
71915;BME280;60387;49.994;14.660;2023-04-04T07:06:15;98568.66;;;6.42;43.63
71915;BME280;60387;49.994;14.660;2023-04-04T07:08:49;98566.34;;;6.82;43.24
71915;BME280;60387;49.994;14.660;2023-04-04T07:11:22;98571.06;;;7.01;42.22
71915;BME280;60387;49.994;14.660;2023-04-04T07:13:56;98557.19;;;7.19;42.50
71915;BME280;60387;49.994;14.660;2023-04-04T07:16:29;98558.41;;;7.38;41.67
71915;BME280;60387;49.994;14.660;2023-04-04T07:19:02;98556.91;;;7.62;41.80
71915;BME280;60387;49.994;14.660;2023-04-04T07:21:36;98570.78;;;7.81;38.65
71915;BME280;60387;49.994;14.660;2023-04-04T07:24:09;98560.84;;;7.91;39.53
71915;BME280;60387;49.994;14.660;2023-04-04T07:26:42;98561.91;;;7.85;38.71
71915;BME280;60387;49.994;14.660;2023-04-04T07:29:16;98558.75;;;8.13;38.58
71915;BME280;60387;49.994;14.660;2023-04-04T07:31:49;98558.06;;;8.43;37.72
71915;BME280;60387;49.994;14.660;2023-04-04T07:34:22;98555.13;;;8.64;37.54
71915;BME280;60387;49.994;14.660;2023-04-04T07:36:56;98556.50;;;8.82;38.47
71915;BME280;60387;49.994;14.660;2023-04-04T07:39:29;98554.63;;;8.82;38.17
71915;BME280;60387;49.994;14.660;2023-04-04T07:42:02;98549.75;;;8.89;36.29
71915;BME280;60387;49.994;14.660;2023-04-04T07:44:35;98547.59;;;9.16;36.80
71915;BME280;60387;49.994;14.660;2023-04-04T07:47:09;98547.84;;;9.30;36.93
71915;BME280;60387;49.994;14.660;2023-04-04T07:49:42;98562.69;;;9.52;35.94
71915;BME280;60387;49.994;14.660;2023-04-04T07:52:16;98552.38;;;9.49;34.82
71915;BME280;60387;49.994;14.660;2023-04-04T07:54:49;98557.84;;;9.19;36.07
71915;BME280;60387;49.994;14.660;2023-04-04T07:57:22;98561.09;;;8.81;35.25
71915;BME280;60387;49.994;14.660;2023-04-04T07:59:56;98559.44;;;8.50;35.83
71915;BME280;60387;49.994;14.660;2023-04-04T08:02:29;98556.97;;;8.29;34.86
71915;BME280;60387;49.994;14.660;2023-04-04T08:05:03;98564.16;;;8.08;35.42
71915;BME280;60387;49.994;14.660;2023-04-04T08:07:36;98550.97;;;7.55;35.97
71915;BME280;60387;49.994;14.660;2023-04-04T08:10:10;98552.06;;;7.59;36.52
71915;BME280;60387;49.994;14.660;2023-04-04T08:12:46;98553.22;;;7.27;36.09
71915;BME280;60387;49.994;14.660;2023-04-04T08:15:20;98559.50;;;7.37;35.90
71915;BME280;60387;49.994;14.660;2023-04-04T08:17:53;98553.47;;;7.20;35.47
71915;BME280;60387;49.994;14.660;2023-04-04T08:20:26;98555.22;;;7.05;35.63
71915;BME280;60387;49.994;14.660;2023-04-04T08:23:00;98550.38;;;7.07;36.23
71915;BME280;60387;49.994;14.660;2023-04-04T08:25:33;98554.97;;;7.06;35.76
71915;BME280;60387;49.994;14.660;2023-04-04T08:28:06;98547.94;;;7.05;35.84
71915;BME280;60387;49.994;14.660;2023-04-04T08:30:40;98544.53;;;6.83;35.21
71915;BME280;60387;49.994;14.660;2023-04-04T08:33:13;98539.78;;;6.64;35.58
71915;BME280;60387;49.994;14.660;2023-04-04T08:35:47;98540.66;;;6.69;35.78
71915;BME280;60387;49.994;14.660;2023-04-04T08:38:20;98539.44;;;6.82;35.47
71915;BME280;60387;49.994;14.660;2023-04-04T08:40:53;98527.66;;;7.34;35.69
71915;BME280;60387;49.994;14.660;2023-04-04T08:43:27;98536.03;;;7.89;35.91
71915;BME280;60387;49.994;14.660;2023-04-04T08:46:03;98532.38;;;8.20;32.75
71915;BME280;60387;49.994;14.660;2023-04-04T08:48:38;98538.69;;;8.71;33.72
71915;BME280;60387;49.994;14.660;2023-04-04T08:51:14;98537.84;;;8.70;32.28
71915;BME280;60387;49.994;14.660;2023-04-04T08:53:49;98538.94;;;8.64;32.16
71915;BME280;60387;49.994;14.660;2023-04-04T08:56:22;98536.50;;;8.58;32.86
71915;BME280;60387;49.994;14.660;2023-04-04T08:58:56;98535.16;;;8.65;33.17
71915;BME280;60387;49.994;14.660;2023-04-04T09:01:29;98527.59;;;8.67;33.41
71915;BME280;60387;49.994;14.660;2023-04-04T09:04:03;98524.38;;;8.85;33.81
71915;BME280;60387;49.994;14.660;2023-04-04T09:06:36;98528.69;;;8.96;33.91
71915;BME280;60387;49.994;14.660;2023-04-04T09:09:11;98525.69;;;9.03;33.59
71915;BME280;60387;49.994;14.660;2023-04-04T09:11:44;98521.91;;;9.09;34.19
71915;BME280;60387;49.994;14.660;2023-04-04T09:14:19;98514.88;;;9.08;33.10
71915;BME280;60387;49.994;14.660;2023-04-04T09:16:53;98528.66;;;9.06;32.62
71915;BME280;60387;49.994;14.660;2023-04-04T09:19:26;98511.94;;;8.94;32.55
71915;BME280;60387;49.994;14.660;2023-04-04T09:21:59;98522.47;;;8.71;33.70
71915;BME280;60387;49.994;14.660;2023-04-04T09:24:42;98522.22;;;8.82;33.38
71915;BME280;60387;49.994;14.660;2023-04-04T09:27:15;98529.22;;;8.93;33.76
71915;BME280;60387;49.994;14.660;2023-04-04T09:29:48;98518.16;;;8.95;32.95
71915;BME280;60387;49.994;14.660;2023-04-04T09:32:22;98520.03;;;8.99;32.99
71915;BME280;60387;49.994;14.660;2023-04-04T09:34:55;98530.31;;;9.02;33.54
71915;BME280;60387;49.994;14.660;2023-04-04T09:37:29;98522.47;;;8.76;32.84
71915;BME280;60387;49.994;14.660;2023-04-04T09:40:03;98520.59;;;8.76;33.08
71915;BME280;60387;49.994;14.660;2023-04-04T09:42:37;98517.34;;;8.79;33.48
71915;BME280;60387;49.994;14.660;2023-04-04T09:45:11;98517.34;;;9.09;33.47
71915;BME280;60387;49.994;14.660;2023-04-04T09:47:44;98519.72;;;9.31;33.57
71915;BME280;60387;49.994;14.660;2023-04-04T09:50:22;98518.63;;;9.42;32.21
71915;BME280;60387;49.994;14.660;2023-04-04T09:52:56;98520.22;;;9.43;31.96
71915;BME280;60387;49.994;14.660;2023-04-04T09:55:36;98523.78;;;9.28;31.50
71915;BME280;60387;49.994;14.660;2023-04-04T09:58:15;98523.25;;;9.11;31.84
71915;BME280;60387;49.994;14.660;2023-04-04T10:00:52;98526.00;;;8.91;32.03
71915;BME280;60387;49.994;14.660;2023-04-04T10:03:26;98521.94;;;8.74;33.06
71915;BME280;60387;49.994;14.660;2023-04-04T10:06:07;98523.00;;;9.03;34.36
71915;BME280;60387;49.994;14.660;2023-04-04T10:08:42;98519.44;;;9.42;33.47
71915;BME280;60387;49.994;14.660;2023-04-04T10:11:30;98531.19;;;9.81;32.35
71915;BME280;60387;49.994;14.660;2023-04-04T10:14:03;98516.81;;;10.05;32.84
71915;BME280;60387;49.994;14.660;2023-04-04T10:16:37;98512.81;;;10.41;31.41
71915;BME280;60387;49.994;14.660;2023-04-04T10:19:10;98512.31;;;10.68;30.79
71915;BME280;60387;49.994;14.660;2023-04-04T10:21:45;98516.94;;;11.01;30.54
71915;BME280;60387;49.994;14.660;2023-04-04T10:24:19;98514.44;;;11.38;30.24
71915;BME280;60387;49.994;14.660;2023-04-04T10:26:53;98502.41;;;11.72;29.41
71915;BME280;60387;49.994;14.660;2023-04-04T10:29:26;98498.78;;;12.00;28.97
71915;BME280;60387;49.994;14.660;2023-04-04T10:32:06;98493.47;;;12.51;29.51
71915;BME280;60387;49.994;14.660;2023-04-04T10:34:52;98496.25;;;12.82;28.31
71915;BME280;60387;49.994;14.660;2023-04-04T10:37:31;98501.59;;;12.87;28.77
71915;BME280;60387;49.994;14.660;2023-04-04T10:40:08;98499.06;;;12.41;27.90
71915;BME280;60387;49.994;14.660;2023-04-04T10:42:44;98499.34;;;12.02;29.40
71915;BME280;60387;49.994;14.660;2023-04-04T10:45:18;98494.53;;;11.71;29.53
71915;BME280;60387;49.994;14.660;2023-04-04T10:47:51;98492.00;;;11.56;29.57
71915;BME280;60387;49.994;14.660;2023-04-04T10:50:26;98493.47;;;11.72;29.78
71915;BME280;60387;49.994;14.660;2023-04-04T10:52:59;98492.47;;;11.63;30.11
71915;BME280;60387;49.994;14.660;2023-04-04T10:55:34;98494.59;;;11.89;29.91
71915;BME280;60387;49.994;14.660;2023-04-04T10:58:08;98490.28;;;11.88;29.10
71915;BME280;60387;49.994;14.660;2023-04-04T11:00:49;98487.19;;;11.95;29.86
71915;BME280;60387;49.994;14.660;2023-04-04T11:03:23;98490.22;;;11.93;28.79
71915;BME280;60387;49.994;14.660;2023-04-04T11:05:57;98491.69;;;12.04;29.26
71915;BME280;60387;49.994;14.660;2023-04-04T11:08:30;98474.16;;;12.34;29.28
71915;BME280;60387;49.994;14.660;2023-04-04T11:11:04;98463.94;;;12.63;29.15
71915;BME280;60387;49.994;14.660;2023-04-04T11:13:37;98466.78;;;12.71;27.83
71915;BME280;60387;49.994;14.660;2023-04-04T11:16:12;98461.09;;;12.36;27.71
71915;BME280;60387;49.994;14.660;2023-04-04T11:18:46;98463.22;;;12.02;28.52
71915;BME280;60387;49.994;14.660;2023-04-04T11:21:20;98459.81;;;11.73;28.67
71915;BME280;60387;49.994;14.660;2023-04-04T11:29:04;98469.47;;;11.79;28.28
71915;BME280;60387;49.994;14.660;2023-04-04T11:31:43;98467.25;;;12.23;30.03
71915;BME280;60387;49.994;14.660;2023-04-04T11:34:30;98462.69;;;12.55;28.21
71915;BME280;60387;49.994;14.660;2023-04-04T11:37:15;98467.69;;;12.67;28.36
71915;BME280;60387;49.994;14.660;2023-04-04T11:39:48;98466.16;;;12.24;26.99
71915;BME280;60387;49.994;14.660;2023-04-04T11:42:22;98461.91;;;12.36;28.02
71915;BME280;60387;49.994;14.660;2023-04-04T11:45:02;98450.72;;;12.56;27.89
71915;BME280;60387;49.994;14.660;2023-04-04T11:47:38;98444.19;;;12.89;28.70
71915;BME280;60387;49.994;14.660;2023-04-04T11:50:13;98450.63;;;13.11;27.11
71915;BME280;60387;49.994;14.660;2023-04-04T11:52:46;98455.34;;;12.87;25.53
71915;BME280;60387;49.994;14.660;2023-04-04T11:55:20;98455.06;;;12.39;26.38
71915;BME280;60387;49.994;14.660;2023-04-04T11:57:53;98453.94;;;12.40;25.93
71915;BME280;60387;49.994;14.660;2023-04-04T12:00:28;98442.41;;;12.48;27.31
71915;BME280;60387;49.994;14.660;2023-04-04T12:03:06;98445.53;;;12.91;28.15
71915;BME280;60387;49.994;14.660;2023-04-04T12:05:41;98447.53;;;13.45;26.30
71915;BME280;60387;49.994;14.660;2023-04-04T12:08:15;98444.00;;;13.71;25.86
71915;BME280;60387;49.994;14.660;2023-04-04T12:10:50;98447.84;;;13.70;25.86
71915;BME280;60387;49.994;14.660;2023-04-04T12:13:29;98444.81;;;13.58;25.43
71915;BME280;60387;49.994;14.660;2023-04-04T12:16:03;98448.84;;;13.47;25.23
71915;BME280;60387;49.994;14.660;2023-04-04T12:18:36;98433.50;;;13.24;24.65
71915;BME280;60387;49.994;14.660;2023-04-04T12:21:09;98433.28;;;13.07;24.56
71915;BME280;60387;49.994;14.660;2023-04-04T12:23:43;98433.00;;;12.90;25.52
71915;BME280;60387;49.994;14.660;2023-04-04T12:26:16;98438.19;;;12.73;25.15
71915;BME280;60387;49.994;14.660;2023-04-04T12:28:50;98430.78;;;12.79;25.71
71915;BME280;60387;49.994;14.660;2023-04-04T12:31:24;98430.28;;;12.90;26.28
71915;BME280;60387;49.994;14.660;2023-04-04T12:33:58;98445.16;;;12.79;26.03
71915;BME280;60387;49.994;14.660;2023-04-04T12:36:32;98436.41;;;12.32;24.87
71915;BME280;60387;49.994;14.660;2023-04-04T12:39:07;98433.19;;;12.49;26.21
71915;BME280;60387;49.994;14.660;2023-04-04T12:41:57;98419.97;;;12.74;26.82
71915;BME280;60387;49.994;14.660;2023-04-04T12:44:33;98416.63;;;12.95;26.73
71915;BME280;60387;49.994;14.660;2023-04-04T12:47:07;98429.00;;;12.88;25.90
71915;BME280;60387;49.994;14.660;2023-04-04T12:49:43;98426.97;;;12.62;24.87
71915;BME280;60387;49.994;14.660;2023-04-04T12:52:28;98431.88;;;12.46;25.89
71915;BME280;60387;49.994;14.660;2023-04-04T12:55:08;98427.38;;;12.55;26.30
71915;BME280;60387;49.994;14.660;2023-04-04T12:57:43;98428.78;;;12.84;25.55
71915;BME280;60387;49.994;14.660;2023-04-04T13:00:18;98420.63;;;13.16;25.17
71915;BME280;60387;49.994;14.660;2023-04-04T13:02:52;98417.22;;;13.51;25.19
71915;BME280;60387;49.994;14.660;2023-04-04T13:05:25;98400.22;;;13.81;24.21
71915;BME280;60387;49.994;14.660;2023-04-04T13:08:08;98416.47;;;13.86;24.08
71915;BME280;60387;49.994;14.660;2023-04-04T13:10:56;98424.00;;;13.89;23.19
71915;BME280;60387;49.994;14.660;2023-04-04T13:13:34;98420.00;;;13.60;23.25
71915;BME280;60387;49.994;14.660;2023-04-04T13:16:33;98413.88;;;13.27;24.04
71915;BME280;60387;49.994;14.660;2023-04-04T13:19:07;98410.81;;;13.15;24.23
71915;BME280;60387;49.994;14.660;2023-04-04T13:21:40;98405.09;;;12.85;25.23
71915;BME280;60387;49.994;14.660;2023-04-04T13:24:14;98400.88;;;12.79;24.72
71915;BME280;60387;49.994;14.660;2023-04-04T13:26:47;98404.25;;;12.39;24.68
71915;BME280;60387;49.994;14.660;2023-04-04T13:29:20;98402.44;;;12.35;24.67
71915;BME280;60387;49.994;14.660;2023-04-04T13:31:53;98391.72;;;12.25;24.61
71915;BME280;60387;49.994;14.660;2023-04-04T13:34:27;98391.41;;;12.26;25.20
71915;BME280;60387;49.994;14.660;2023-04-04T13:37:00;98402.00;;;12.09;25.59
71915;BME280;60387;49.994;14.660;2023-04-04T13:39:33;98394.97;;;11.90;24.82
71915;BME280;60387;49.994;14.660;2023-04-04T13:42:07;98386.22;;;11.74;25.84
71915;BME280;60387;49.994;14.660;2023-04-04T13:44:40;98402.50;;;11.51;25.87